Terminal Aerodrome Forecast
Issued by NWS

Home | Current Version | Previous Version | Graphics & Text | Print | Product List | Glossary On
Versions: 1 2 3 4 5 6 7 8 9 10 11 12 13 14 15 16
630
FTUS43 KBIS 201730
TAFDIK
TAF
KDIK 201730Z 2018/2118 18016KT P6SM FEW110 SCT200
     FM202300 16019G27KT P6SM VCTS FEW110CB SCT200
     FM210300 16013KT P6SM FEW100 SCT200 WS020/19040KT
     FM210700 19012G20KT P6SM FEW090 SCT200
     FM210900 22008KT P6SM FEW100 FEW200
     FM211200 26006KT P6SM FEW100 SCT250
     FM211500 29008KT P6SM FEW080 SCT250=

USA.gov is the U.S. government's official web portal to all federal, state and local government web resources and services.